createdAt,value
2019-02-18T00:02:17.594Z,98686.28
2019-02-18T00:04:49.617Z,98687.23
2019-02-18T00:07:21.612Z,98685.34
2019-02-18T00:09:53.626Z,98684.51
2019-02-18T00:12:25.662Z,98684.59
2019-02-18T00:14:57.616Z,98685.59
2019-02-18T00:17:29.626Z,98685.86
2019-02-18T00:20:01.629Z,98683.39
2019-02-18T00:22:33.616Z,98688.83
2019-02-18T00:25:05.613Z,98683.28
2019-02-18T00:27:37.672Z,98684.80
2019-02-18T00:30:09.634Z,98681.39
2019-02-18T00:32:41.651Z,98683.27
2019-02-18T00:35:13.651Z,98684.22
2019-02-18T00:37:45.658Z,98682.02
2019-02-18T00:40:17.654Z,98687.57
2019-02-18T00:42:49.660Z,98684.34
2019-02-18T00:45:21.661Z,98684.59
2019-02-18T00:47:53.647Z,98678.31
2019-02-18T00:50:25.678Z,98684.30
2019-02-18T00:52:57.693Z,98679.62
2019-02-18T00:55:29.669Z,98683.53
2019-02-18T00:58:01.682Z,98681.00
2019-02-18T01:00:33.907Z,98677.84
2019-02-18T01:03:06.035Z,98681.30
2019-02-18T01:05:38.021Z,98682.02
2019-02-18T01:08:10.019Z,98679.81
2019-02-18T01:10:41.999Z,98681.00
2019-02-18T01:13:13.998Z,98668.34
2019-02-18T01:15:45.975Z,98678.47
2019-02-18T01:18:18.093Z,98678.59
2019-02-18T01:20:50.081Z,98675.71
2019-02-18T01:23:22.191Z,98676.27
2019-02-18T01:25:54.161Z,98671.09
2019-02-18T01:28:26.174Z,98682.23
2019-02-18T01:30:58.203Z,98674.44
2019-02-18T01:33:30.234Z,98677.47
2019-02-18T01:36:02.205Z,98681.84
2019-02-18T01:38:34.197Z,98684.02
2019-02-18T01:41:06.175Z,98680.80
2019-02-18T01:43:38.155Z,98669.34
2019-02-18T01:46:10.096Z,98674.19
2019-02-18T01:48:42.108Z,98677.09
2019-02-18T01:51:14.085Z,98678.78
2019-02-18T01:53:46.904Z,98675.39
2019-02-18T01:56:18.891Z,98670.36
2019-02-18T01:58:50.874Z,98670.78
2019-02-18T02:01:22.829Z,98669.20
2019-02-18T02:03:54.819Z,98675.04
2019-02-18T02:06:26.772Z,98673.52
2019-02-18T02:08:58.751Z,98671.70
2019-02-18T02:11:30.760Z,98670.30
2019-02-18T02:14:02.750Z,98665.82
2019-02-18T02:16:34.716Z,98669.97
2019-02-18T02:19:06.728Z,98669.55
2019-02-18T02:21:38.696Z,98671.05
2019-02-18T02:24:10.686Z,98670.58
2019-02-18T02:26:42.658Z,98669.19
2019-02-18T02:29:14.690Z,98656.89
2019-02-18T02:31:46.687Z,98664.30
2019-02-18T02:34:18.676Z,98658.48
2019-02-18T02:36:50.667Z,98654.01
2019-02-18T02:39:22.672Z,98659.78
2019-02-18T02:41:54.649Z,98659.59
2019-02-18T02:44:26.599Z,98659.64
2019-02-18T02:46:58.575Z,98664.67
2019-02-18T02:49:30.554Z,98658.01
2019-02-18T02:52:02.517Z,98658.99
2019-02-18T02:54:34.481Z,98654.00
2019-02-18T02:57:06.489Z,98653.53
2019-02-18T02:59:38.463Z,98650.77
2019-02-18T03:02:10.464Z,98646.96
2019-02-18T03:04:42.430Z,98644.96
2019-02-18T03:07:14.412Z,98643.52
2019-02-18T03:09:46.355Z,98638.59
2019-02-18T03:12:18.362Z,98637.80
2019-02-18T03:14:50.334Z,98638.54
2019-02-18T03:17:22.340Z,98640.67
2019-02-18T03:19:54.325Z,98641.28
2019-02-18T03:22:26.333Z,98640.08
2019-02-18T03:25:21.420Z,98644.55
2019-02-18T03:28:06.503Z,98637.66
2019-02-18T03:30:43.952Z,98638.91
2019-02-18T03:33:19.330Z,98638.40
2019-02-18T03:35:51.330Z,98637.88
2019-02-18T03:38:31.275Z,98636.40
2019-02-18T03:41:03.255Z,98636.58
2019-02-18T03:43:31.033Z,98638.02
2019-02-18T03:46:02.993Z,98645.20
2019-02-18T03:48:34.996Z,98644.08
2019-02-18T03:51:06.975Z,98644.30
2019-02-18T03:53:38.956Z,98646.74
2019-02-18T03:56:10.906Z,98645.95
2019-02-18T03:58:42.889Z,98650.66
2019-02-18T04:01:14.835Z,98646.31
2019-02-18T04:03:46.811Z,98651.27
2019-02-18T04:06:18.774Z,98651.44
2019-02-18T04:08:50.742Z,98655.54
2019-02-18T04:11:22.712Z,98652.50
2019-02-18T04:13:54.733Z,98655.45
2019-02-18T04:16:26.670Z,98650.84
2019-02-18T04:18:58.667Z,98645.90
2019-02-18T04:21:30.645Z,98649.48
2019-02-18T04:24:02.622Z,98646.27
2019-02-18T04:26:34.585Z,98647.81
2019-02-18T04:29:06.700Z,98649.58
2019-02-18T04:31:38.657Z,98641.11
2019-02-18T04:34:10.666Z,98640.55
2019-02-18T04:36:42.876Z,98640.88
2019-02-18T04:39:15.303Z,98647.02
2019-02-18T04:41:47.292Z,98650.46
2019-02-18T04:44:19.298Z,98651.11
2019-02-18T04:46:51.516Z,98647.02
2019-02-18T04:49:23.522Z,98638.67
2019-02-18T04:51:55.502Z,98641.25
2019-02-18T04:54:27.473Z,98643.11
2019-02-18T04:56:59.451Z,98645.30
2019-02-18T04:59:31.420Z,98642.78
2019-02-18T05:02:03.399Z,98642.45
2019-02-18T05:04:35.355Z,98642.78
2019-02-18T05:07:07.331Z,98637.92
2019-02-18T05:09:40.125Z,98640.77
2019-02-18T05:12:12.349Z,98642.31
2019-02-18T05:14:44.335Z,98634.25
2019-02-18T05:17:16.350Z,98631.93
2019-02-18T05:19:48.330Z,98629.22
2019-02-18T05:22:20.308Z,98637.14
2019-02-18T05:24:52.265Z,98643.11
2019-02-18T05:27:33.097Z,98641.29
2019-02-18T05:29:58.097Z,98651.39
2019-02-18T05:32:30.101Z,98648.14
2019-02-18T05:35:02.098Z,98642.78
2019-02-18T05:37:34.045Z,98639.23
2019-02-18T05:40:06.069Z,98640.86
2019-02-18T05:42:38.053Z,98639.47
2019-02-18T05:45:10.082Z,98642.77
2019-02-18T05:47:42.088Z,98639.44
2019-02-18T05:50:14.078Z,98636.70
2019-02-18T05:52:46.068Z,98636.70
2019-02-18T05:55:18.025Z,98631.27
2019-02-18T05:57:50.021Z,98635.96
2019-02-18T06:00:21.976Z,98634.30
2019-02-18T06:02:53.974Z,98633.59
2019-02-18T06:05:25.946Z,98634.14
2019-02-18T06:07:57.944Z,98628.94
2019-02-18T06:10:29.932Z,98624.94
2019-02-18T06:13:01.943Z,98627.63
2019-02-18T06:15:33.917Z,98628.52
2019-02-18T06:18:05.964Z,98634.30
2019-02-18T06:20:37.954Z,98632.30
2019-02-18T06:23:09.933Z,98639.09
2019-02-18T06:25:41.966Z,98635.63
2019-02-18T06:28:13.976Z,98640.69
2019-02-18T06:30:45.932Z,98639.77
2019-02-18T06:33:17.923Z,98648.97
2019-02-18T06:35:50.417Z,98642.36
2019-02-18T06:38:22.447Z,98649.72
2019-02-18T06:40:54.415Z,98654.92
2019-02-18T06:43:26.420Z,98651.64
2019-02-18T06:46:12.194Z,98655.52
2019-02-18T06:48:50.985Z,98649.52
2019-02-18T06:51:22.962Z,98652.87
2019-02-18T06:53:55.000Z,98655.68
2019-02-18T06:56:46.540Z,98656.75
2019-02-18T06:59:24.166Z,98654.05
2019-02-18T07:02:15.773Z,98663.22
2019-02-18T07:05:07.412Z,98659.89
2019-02-18T07:07:59.085Z,98658.09
2019-02-18T07:10:50.644Z,98658.84
2019-02-18T07:13:22.627Z,98657.88
2019-02-18T07:15:54.643Z,98658.70
2019-02-18T07:18:26.652Z,98663.22
2019-02-18T07:20:58.662Z,98658.89
2019-02-18T07:23:30.647Z,98660.69
2019-02-18T07:26:02.655Z,98658.26
2019-02-18T07:28:34.689Z,98649.48
2019-02-18T07:31:06.720Z,98643.56
2019-02-18T07:33:38.684Z,98648.92
2019-02-18T07:36:10.674Z,98642.47
2019-02-18T07:38:42.679Z,98643.92
2019-02-18T07:41:14.690Z,98639.69
2019-02-18T07:43:46.680Z,98635.64
2019-02-18T07:46:18.653Z,98642.66
2019-02-18T07:48:50.631Z,98638.05
2019-02-18T07:51:22.652Z,98636.50
2019-02-18T07:53:54.614Z,98639.94
2019-02-18T07:56:26.604Z,98637.55
2019-02-18T07:58:58.586Z,98636.37
2019-02-18T08:01:30.589Z,98631.39
2019-02-18T08:04:02.560Z,98634.55
2019-02-18T08:06:34.565Z,98637.08
2019-02-18T08:09:06.773Z,98634.98
2019-02-18T08:11:38.774Z,98634.93
2019-02-18T08:14:10.769Z,98625.23
2019-02-18T08:16:42.774Z,98624.95
2019-02-18T08:19:15.658Z,98627.51
2019-02-18T08:24:26.910Z,98626.28
2019-02-18T08:26:58.930Z,98623.95
2019-02-18T08:29:30.933Z,98622.09
2019-02-18T08:32:02.925Z,98623.52
2019-02-18T08:34:34.914Z,98622.90
2019-02-18T08:37:06.953Z,98621.72
2019-02-18T08:39:38.961Z,98617.41
2019-02-18T08:42:10.984Z,98614.77
2019-02-18T08:44:42.958Z,98619.13
2019-02-18T08:47:14.954Z,98618.05
2019-02-18T08:49:46.971Z,98613.53
2019-02-18T08:52:18.992Z,98618.54
2019-02-18T08:54:56.608Z,98606.63
2019-02-18T08:57:24.963Z,98605.09
2019-02-18T08:59:56.973Z,98606.73
2019-02-18T09:02:28.959Z,98607.02
2019-02-18T09:05:00.971Z,98604.19
2019-02-18T09:07:32.966Z,98598.33
2019-02-18T09:10:05.302Z,98593.49
2019-02-18T09:12:37.283Z,98591.86
2019-02-18T09:15:09.480Z,98590.95
2019-02-18T09:17:41.523Z,98594.07
2019-02-18T09:20:13.587Z,98587.11
2019-02-18T09:23:05.125Z,98588.84
2019-02-18T09:25:56.709Z,98581.41
2019-02-18T09:28:28.727Z,98572.07
2019-02-18T09:31:00.735Z,98572.23
2019-02-18T09:33:32.740Z,98569.22
2019-02-18T09:36:04.748Z,98569.94
2019-02-18T09:41:35.828Z,98568.98
2019-02-18T09:44:07.873Z,98564.42
2019-02-18T09:46:40.486Z,98565.51
2019-02-18T09:49:13.853Z,98559.71
2019-02-18T09:51:45.905Z,98554.11
2019-02-18T09:54:17.889Z,98549.18
2019-02-18T09:56:49.902Z,98545.18
2019-02-18T09:59:23.940Z,98536.91
2019-02-18T10:01:55.961Z,98532.93
2019-02-18T10:04:28.036Z,98533.22
2019-02-18T10:07:00.051Z,98521.16
2019-02-18T10:09:32.046Z,98523.84
2019-02-18T10:12:04.048Z,98523.48
2019-02-18T10:14:36.041Z,98518.95
2019-02-18T10:17:08.018Z,98518.47
2019-02-18T10:19:40.025Z,98511.09
2019-02-18T10:22:12.023Z,98511.70
2019-02-18T10:24:50.726Z,98513.53
2019-02-18T10:27:17.930Z,98505.84
2019-02-18T10:29:50.027Z,98500.80
2019-02-18T10:32:22.044Z,98503.25
2019-02-18T10:34:54.082Z,98496.52
2019-02-18T10:37:26.068Z,98496.63
2019-02-18T10:39:58.099Z,98490.56
2019-02-18T10:42:30.105Z,98482.48
2019-02-18T10:45:02.146Z,98483.42
2019-02-18T10:47:34.191Z,98482.04
2019-02-18T10:50:07.067Z,98481.84
2019-02-18T10:52:39.088Z,98475.33
2019-02-18T10:55:11.184Z,98472.19
2019-02-18T10:57:43.507Z,98462.44
2019-02-18T11:00:15.517Z,98465.52
2019-02-18T11:02:48.865Z,98462.08
2019-02-18T11:05:20.858Z,98452.63
2019-02-18T11:07:52.876Z,98456.05
2019-02-18T11:10:24.866Z,98447.68
2019-02-18T11:12:56.992Z,98445.08
2019-02-18T11:15:29.284Z,98433.94
2019-02-18T11:18:01.355Z,98426.62
2019-02-18T11:20:33.350Z,98419.19
2019-02-18T11:23:05.355Z,98413.19
2019-02-18T11:25:37.346Z,98414.86
2019-02-18T11:28:09.478Z,98411.31
2019-02-18T11:30:41.485Z,98395.73
2019-02-18T11:33:13.460Z,98396.04
2019-02-18T11:35:45.437Z,98389.75
2019-02-18T11:38:17.410Z,98389.45
2019-02-18T11:40:49.433Z,98379.95
2019-02-18T11:43:21.423Z,98377.77
2019-02-18T11:45:53.404Z,98377.49
2019-02-18T11:48:25.379Z,98371.34
2019-02-18T11:50:57.787Z,98370.82
2019-02-18T11:53:29.791Z,98365.89
2019-02-18T11:56:01.790Z,98363.66
2019-02-18T11:58:33.769Z,98358.46
2019-02-18T12:01:05.761Z,98355.73
2019-02-18T12:03:37.767Z,98351.92
2019-02-18T12:06:09.761Z,98354.23
2019-02-18T12:08:41.755Z,98347.66
2019-02-18T12:11:13.760Z,98343.16
2019-02-18T12:13:45.734Z,98341.73
2019-02-18T12:16:17.750Z,98334.28
2019-02-18T12:18:49.775Z,98332.53
2019-02-18T12:21:21.828Z,98328.12
2019-02-18T12:23:53.917Z,98330.23
2019-02-18T12:26:25.921Z,98324.11
2019-02-18T12:28:57.917Z,98325.16
2019-02-18T12:31:29.899Z,98318.91
2019-02-18T12:34:01.886Z,98311.38
2019-02-18T12:36:33.866Z,98308.94
2019-02-18T12:39:11.916Z,98305.76
2019-02-18T12:41:48.817Z,98297.69
2019-02-18T12:44:17.864Z,98302.77
2019-02-18T12:46:49.888Z,98292.80
2019-02-18T12:49:21.884Z,98288.77
2019-02-18T12:51:53.881Z,98290.62
2019-02-18T12:54:26.516Z,98281.73
2019-02-18T12:56:58.593Z,98281.16
2019-02-18T12:59:31.011Z,98282.30
2019-02-18T13:02:03.281Z,98283.73
2019-02-18T13:04:35.706Z,98271.06
2019-02-18T13:07:07.696Z,98267.53
2019-02-18T13:09:39.647Z,98263.97
2019-02-18T13:12:11.700Z,98264.72
2019-02-18T13:14:43.651Z,98258.06
2019-02-18T13:17:15.661Z,98250.20
2019-02-18T13:19:47.974Z,98246.30
2019-02-18T13:22:20.053Z,98236.14
2019-02-18T13:24:52.039Z,98232.06
2019-02-18T13:27:24.012Z,98230.09
2019-02-18T13:29:56.004Z,98227.00
2019-02-18T13:32:28.404Z,98228.45
2019-02-18T13:35:00.417Z,98224.33
2019-02-18T13:37:32.407Z,98221.75
2019-02-18T13:40:04.987Z,98223.89
2019-02-18T13:42:37.015Z,98216.87
2019-02-18T13:45:09.332Z,98222.04
2019-02-18T13:47:41.445Z,98220.17
2019-02-18T13:50:13.657Z,98219.75
2019-02-18T13:52:45.658Z,98214.38
2019-02-18T13:55:17.962Z,98212.81
2019-02-18T13:57:49.904Z,98206.27
2019-02-18T14:00:21.941Z,98203.98
2019-02-18T14:02:53.891Z,98207.52
2019-02-18T14:05:25.918Z,98207.07
2019-02-18T14:07:57.884Z,98211.80
2019-02-18T14:10:29.887Z,98215.08
2019-02-18T14:13:01.874Z,98209.72
2019-02-18T14:15:33.907Z,98206.78
2019-02-18T14:18:06.061Z,98204.17
2019-02-18T14:20:38.076Z,98201.45
2019-02-18T14:23:10.088Z,98200.33
2019-02-18T14:25:42.078Z,98203.27
2019-02-18T14:28:14.053Z,98195.75
2019-02-18T14:30:46.094Z,98200.33
2019-02-18T14:33:18.680Z,98190.23
2019-02-18T14:35:50.699Z,98183.78
2019-02-18T14:38:22.721Z,98182.13
2019-02-18T14:40:55.066Z,98181.56
2019-02-18T14:43:27.083Z,98182.55
2019-02-18T14:45:59.405Z,98183.44
2019-02-18T14:48:31.378Z,98179.45
2019-02-18T14:51:03.532Z,98178.76
2019-02-18T14:53:35.534Z,98176.86
2019-02-18T14:56:09.435Z,98180.73
2019-02-18T14:58:41.417Z,98176.27
2019-02-18T15:01:13.420Z,98172.17
2019-02-18T15:03:45.413Z,98170.88
2019-02-18T15:06:17.463Z,98167.03
2019-02-18T15:08:49.466Z,98169.11
2019-02-18T15:11:21.472Z,98173.36
2019-02-18T15:13:53.506Z,98165.00
2019-02-18T15:16:25.512Z,98158.55
2019-02-18T15:18:57.560Z,98157.58
2019-02-18T15:21:29.820Z,98155.23
2019-02-18T15:24:01.802Z,98153.05
2019-02-18T15:26:33.785Z,98159.84
2019-02-18T15:29:05.776Z,98160.58
2019-02-18T15:31:37.841Z,98159.82
2019-02-18T15:34:10.370Z,98159.17
2019-02-18T15:36:42.399Z,98159.39
2019-02-18T15:39:14.383Z,98158.27
2019-02-18T15:41:46.388Z,98157.47
2019-02-18T15:44:18.429Z,98158.73
2019-02-18T15:46:50.749Z,98159.28
2019-02-18T15:49:22.777Z,98161.55
2019-02-18T15:51:54.825Z,98162.52
2019-02-18T15:54:26.900Z,98159.34
2019-02-18T15:56:58.927Z,98159.91
2019-02-18T15:59:30.937Z,98151.02
2019-02-18T16:02:03.040Z,98156.90
2019-02-18T16:04:35.121Z,98150.58
2019-02-18T16:07:07.120Z,98142.53
2019-02-18T16:09:39.188Z,98151.53
2019-02-18T16:12:11.194Z,98149.50
2019-02-18T16:14:43.247Z,98142.08
2019-02-18T16:17:15.306Z,98147.05
2019-02-18T16:19:47.372Z,98147.42
2019-02-18T16:22:19.387Z,98140.59
2019-02-18T16:24:51.426Z,98140.14
2019-02-18T16:27:23.524Z,98146.03
2019-02-18T16:29:55.567Z,98142.45
2019-02-18T16:32:47.048Z,98138.61
2019-02-18T16:35:19.067Z,98141.89
2019-02-18T16:37:51.077Z,98139.82
2019-02-18T16:40:23.123Z,98141.55
2019-02-18T16:42:59.312Z,98146.58
2019-02-18T16:45:29.122Z,98146.80
2019-02-18T16:48:01.155Z,98149.87
2019-02-18T16:50:33.186Z,98152.20
2019-02-18T16:53:05.181Z,98153.88
2019-02-18T16:55:39.143Z,98166.36
2019-02-18T16:58:11.162Z,98162.05
2019-02-18T17:00:43.235Z,98162.16
2019-02-18T17:03:15.267Z,98170.12
2019-02-18T17:05:47.377Z,98162.34
2019-02-18T17:08:19.444Z,98169.79
2019-02-18T17:10:51.500Z,98165.50
2019-02-18T17:13:23.496Z,98162.00
2019-02-18T17:15:55.570Z,98166.70
2019-02-18T17:18:27.645Z,98169.95
2019-02-18T17:20:59.744Z,98168.39
2019-02-18T17:23:31.856Z,98167.50
2019-02-18T17:26:03.933Z,98170.54
2019-02-18T17:28:36.011Z,98169.23
2019-02-18T17:31:08.034Z,98165.80
2019-02-18T17:33:40.103Z,98169.34
2019-02-18T17:36:12.135Z,98171.11
2019-02-18T17:38:44.165Z,98171.58
2019-02-18T17:41:16.232Z,98180.39
2019-02-18T17:44:29.007Z,98184.44
2019-02-18T17:49:39.767Z,98189.02
2019-02-18T17:52:11.833Z,98185.91
2019-02-18T17:54:43.904Z,98188.38
2019-02-18T17:57:16.037Z,98193.31
2019-02-18T17:59:48.070Z,98193.68
2019-02-18T18:02:22.085Z,98189.24
2019-02-18T18:04:54.134Z,98196.45
2019-02-18T18:07:26.213Z,98193.97
2019-02-18T18:09:58.276Z,98196.78
2019-02-18T18:12:30.420Z,98198.23
2019-02-18T18:15:02.594Z,98196.03
2019-02-18T18:17:34.688Z,98200.02
2019-02-18T18:20:07.653Z,98191.52
2019-02-18T18:25:19.734Z,98192.34
2019-02-18T18:27:51.841Z,98191.22
2019-02-18T18:30:23.930Z,98189.83
2019-02-18T18:32:56.041Z,98193.67
2019-02-18T18:35:28.231Z,98199.97
2019-02-18T18:38:00.332Z,98199.00
2019-02-18T18:40:32.476Z,98200.69
2019-02-18T18:43:04.621Z,98200.53
2019-02-18T18:45:36.729Z,98208.19
2019-02-18T18:48:08.777Z,98201.31
2019-02-18T18:50:40.863Z,98205.21
2019-02-18T18:53:12.866Z,98203.66
2019-02-18T18:55:45.029Z,98202.03
2019-02-18T18:58:17.045Z,98206.66
2019-02-18T19:00:50.994Z,98208.88
2019-02-18T19:03:23.101Z,98209.16
2019-02-18T19:05:55.170Z,98204.23
2019-02-18T19:08:27.210Z,98207.02
2019-02-18T19:10:59.280Z,98210.36
2019-02-18T19:13:31.343Z,98216.21
2019-02-18T19:16:03.524Z,98227.16
2019-02-18T19:18:35.764Z,98226.24
2019-02-18T19:21:07.862Z,98235.95
2019-02-18T19:23:41.797Z,98226.59
2019-02-18T19:26:13.954Z,98232.08
2019-02-18T19:28:46.557Z,98228.03
2019-02-18T19:31:18.749Z,98225.22
2019-02-18T19:33:51.373Z,98228.78
2019-02-18T19:36:23.658Z,98224.23
2019-02-18T19:39:15.453Z,98229.30
2019-02-18T19:41:47.626Z,98225.25
2019-02-18T19:44:20.050Z,98223.23
2019-02-18T19:46:52.196Z,98228.05
2019-02-18T19:49:24.278Z,98231.21
2019-02-18T19:51:56.386Z,98231.59
2019-02-18T19:54:28.573Z,98234.25
2019-02-18T19:57:00.647Z,98231.47
2019-02-18T19:59:32.728Z,98227.55
2019-02-18T20:02:04.867Z,98231.08
2019-02-18T20:04:36.972Z,98231.44
2019-02-18T20:07:09.532Z,98232.45
2019-02-18T20:09:41.635Z,98235.84
2019-02-18T20:12:13.730Z,98231.91
2019-02-18T20:14:46.038Z,98232.80
2019-02-18T20:17:18.225Z,98240.63
2019-02-18T20:19:50.711Z,98241.77
2019-02-18T20:22:22.940Z,98243.16
2019-02-18T20:24:55.632Z,98241.37
2019-02-18T20:27:28.131Z,98237.05
2019-02-18T20:30:00.309Z,98242.74
2019-02-18T20:32:32.590Z,98242.84
2019-02-18T20:35:04.883Z,98242.94
2019-02-18T20:37:36.985Z,98246.67
2019-02-18T20:40:09.304Z,98244.99
2019-02-18T20:42:41.883Z,98250.32
2019-02-18T20:45:14.372Z,98250.29
2019-02-18T20:47:46.534Z,98247.69
2019-02-18T20:50:18.597Z,98252.75
2019-02-18T20:52:50.727Z,98251.59
2019-02-18T20:55:23.129Z,98250.45
2019-02-18T20:57:55.202Z,98251.25
2019-02-18T21:00:27.241Z,98254.63
2019-02-18T21:02:59.341Z,98247.80
2019-02-18T21:05:31.402Z,98245.77
2019-02-18T21:08:03.580Z,98249.52
2019-02-18T21:10:35.632Z,98248.22
2019-02-18T21:13:07.679Z,98254.35
2019-02-18T21:15:40.833Z,98247.72
2019-02-18T21:18:13.193Z,98255.98
2019-02-18T21:20:47.095Z,98255.58
2019-02-18T21:23:19.136Z,98259.99
2019-02-18T21:25:51.197Z,98257.13
2019-02-18T21:28:25.208Z,98254.88
2019-02-18T21:30:57.369Z,98261.36
2019-02-18T21:33:29.465Z,98265.50
2019-02-18T21:36:01.755Z,98268.41
2019-02-18T21:38:33.784Z,98263.66
2019-02-18T21:41:05.826Z,98268.55
2019-02-18T21:43:38.789Z,98263.67
2019-02-18T21:46:10.827Z,98270.80
2019-02-18T21:48:42.808Z,98268.88
2019-02-18T21:51:14.873Z,98271.41
2019-02-18T21:53:46.896Z,98270.25
2019-02-18T21:56:18.955Z,98270.47
2019-02-18T21:58:52.748Z,98275.94
2019-02-18T22:01:24.794Z,98271.87
2019-02-18T22:03:56.757Z,98278.03
2019-02-18T22:06:29.325Z,98277.14
2019-02-18T22:09:01.351Z,98279.95
2019-02-18T22:11:33.375Z,98291.34
2019-02-18T22:14:05.449Z,98289.39
2019-02-18T22:16:38.614Z,98295.16
2019-02-18T22:19:11.046Z,98296.36
2019-02-18T22:21:43.484Z,98306.71
2019-02-18T22:24:15.547Z,98310.72
2019-02-18T22:26:47.578Z,98311.41
2019-02-18T22:29:19.777Z,98308.91
2019-02-18T22:31:52.205Z,98310.64
2019-02-18T22:34:24.204Z,98311.91
2019-02-18T22:36:56.258Z,98304.34
2019-02-18T22:39:29.364Z,98307.37
2019-02-18T22:42:01.377Z,98303.73
2019-02-18T22:44:41.736Z,98300.41
2019-02-18T22:47:09.477Z,98302.08
2019-02-18T22:49:41.467Z,98304.20
2019-02-18T22:52:13.467Z,98308.20
2019-02-18T22:54:45.429Z,98304.23
2019-02-18T22:57:17.462Z,98301.79
2019-02-18T22:59:49.466Z,98305.48
2019-02-18T23:02:22.772Z,98309.43
2019-02-18T23:04:54.773Z,98313.57
2019-02-18T23:07:26.944Z,98313.21
2019-02-18T23:09:59.051Z,98308.63
2019-02-18T23:12:32.867Z,98308.78
2019-02-18T23:15:05.229Z,98312.73
2019-02-18T23:17:37.305Z,98317.71
2019-02-18T23:20:09.323Z,98323.05
2019-02-18T23:22:41.328Z,98315.90
2019-02-18T23:25:13.521Z,98313.84
2019-02-18T23:27:45.522Z,98317.63
2019-02-18T23:30:17.538Z,98319.25
2019-02-18T23:32:49.577Z,98327.86
2019-02-18T23:35:21.582Z,98325.64
2019-02-18T23:37:53.541Z,98324.21
2019-02-18T23:40:25.549Z,98326.65
2019-02-18T23:42:57.519Z,98332.45
2019-02-18T23:45:29.524Z,98333.49
2019-02-18T23:48:01.503Z,98333.42
2019-02-18T23:50:33.535Z,98336.99
2019-02-18T23:53:05.947Z,98341.08
2019-02-18T23:55:38.070Z,98341.50
2019-02-18T23:58:10.037Z,98350.03
